createdAt,value
2023-08-09T00:01:24.914Z,22.59
2023-08-09T00:03:51.620Z,22.58
2023-08-09T00:06:18.156Z,22.53
2023-08-09T00:08:44.951Z,22.50
2023-08-09T00:11:12.225Z,22.53
2023-08-09T00:13:38.898Z,22.48
2023-08-09T00:16:05.867Z,22.41
2023-08-09T00:18:32.635Z,22.39
2023-08-09T00:20:59.232Z,22.46
2023-08-09T00:23:25.836Z,22.49
2023-08-09T00:25:52.474Z,22.46
2023-08-09T00:28:19.099Z,22.50
2023-08-09T00:30:45.879Z,22.45
2023-08-09T00:33:12.935Z,22.49
2023-08-09T00:35:40.977Z,22.48
2023-08-09T00:38:08.486Z,22.49
2023-08-09T00:40:35.105Z,22.47
2023-08-09T00:43:01.723Z,22.48
2023-08-09T00:45:28.342Z,22.47
2023-08-09T00:47:55.619Z,22.46
2023-08-09T00:50:22.613Z,22.54
2023-08-09T00:52:49.527Z,22.57
2023-08-09T00:55:16.204Z,22.61
2023-08-09T00:57:42.871Z,22.59
2023-08-09T01:00:10.567Z,22.68
2023-08-09T01:02:37.480Z,22.63
2023-08-09T01:05:05.968Z,22.74
2023-08-09T01:07:53.779Z,22.84
2023-08-09T01:10:48.136Z,22.81
2023-08-09T01:13:20.183Z,22.90
2023-08-09T01:15:51.037Z,22.86
2023-08-09T01:18:18.853Z,22.97
2023-08-09T01:20:46.864Z,22.95
2023-08-09T01:23:19.759Z,22.98
2023-08-09T01:25:46.518Z,22.97
2023-08-09T01:28:16.247Z,23.07
2023-08-09T01:30:43.729Z,23.07
2023-08-09T01:33:10.500Z,23.18
2023-08-09T01:35:53.908Z,23.10
2023-08-09T01:38:27.512Z,23.18
2023-08-09T01:40:55.027Z,23.19
2023-08-09T01:43:22.767Z,23.25
2023-08-09T01:45:49.746Z,23.22
2023-08-09T01:48:17.075Z,23.26
2023-08-09T01:50:45.638Z,23.28
2023-08-09T01:53:12.567Z,23.28
2023-08-09T01:55:39.681Z,23.23
2023-08-09T01:58:06.431Z,23.31
2023-08-09T02:00:33.208Z,23.34
2023-08-09T02:03:00.055Z,23.35
2023-08-09T02:05:26.669Z,23.36
2023-08-09T02:07:53.300Z,23.34
2023-08-09T02:10:20.475Z,23.34
2023-08-09T02:12:49.065Z,23.42
2023-08-09T02:15:17.367Z,23.38
2023-08-09T02:17:45.481Z,23.35
2023-08-09T02:20:13.063Z,23.38
2023-08-09T02:22:40.591Z,23.42
2023-08-09T02:25:08.337Z,23.37
2023-08-09T02:27:35.824Z,23.39
2023-08-09T02:30:07.469Z,23.40
2023-08-09T02:32:35.378Z,23.40
2023-08-09T02:35:03.704Z,23.38
2023-08-09T02:37:30.732Z,23.41
2023-08-09T02:39:57.769Z,23.36
2023-08-09T02:42:24.726Z,23.38
2023-08-09T02:44:51.596Z,23.38
2023-08-09T02:47:18.214Z,23.46
2023-08-09T02:49:45.002Z,23.39
2023-08-09T02:52:11.946Z,23.37
2023-08-09T02:54:39.711Z,23.37
2023-08-09T02:57:08.112Z,23.41
2023-08-09T02:59:35.841Z,23.41
2023-08-09T03:02:03.085Z,23.38
2023-08-09T03:04:29.760Z,23.43
2023-08-09T03:06:56.335Z,23.37
2023-08-09T03:09:23.228Z,23.43
2023-08-09T03:11:49.859Z,23.36
2023-08-09T03:14:16.661Z,23.23
2023-08-09T03:16:43.445Z,23.17
2023-08-09T03:19:11.212Z,23.23
2023-08-09T03:21:38.993Z,23.19
2023-08-09T03:24:06.018Z,23.17
2023-08-09T03:26:32.744Z,23.21
2023-08-09T03:29:00.943Z,23.25
2023-08-09T03:31:28.165Z,23.17
2023-08-09T03:33:54.857Z,23.11
2023-08-09T03:36:21.756Z,23.09
2023-08-09T03:38:49.320Z,23.08
2023-08-09T03:41:16.202Z,23.05
2023-08-09T03:43:42.913Z,22.97
2023-08-09T03:46:09.600Z,22.99
2023-08-09T03:48:36.249Z,22.96
2023-08-09T03:51:02.940Z,23.00
2023-08-09T03:53:29.522Z,23.00
2023-08-09T03:55:56.149Z,22.91
2023-08-09T03:58:22.849Z,22.89
2023-08-09T04:00:49.504Z,22.91
2023-08-09T04:03:18.415Z,22.87
2023-08-09T04:05:45.503Z,22.97
2023-08-09T04:08:12.172Z,22.99
2023-08-09T04:10:39.255Z,22.95
2023-08-09T04:13:05.946Z,22.93
2023-08-09T04:15:32.548Z,22.86
2023-08-09T04:18:00.181Z,22.90
2023-08-09T04:20:28.847Z,22.84
2023-08-09T04:22:57.149Z,22.91
2023-08-09T04:25:23.747Z,22.81
2023-08-09T04:27:50.371Z,22.69
2023-08-09T04:30:16.965Z,22.73
2023-08-09T04:32:43.577Z,22.73
2023-08-09T04:35:11.070Z,22.73
2023-08-09T04:37:38.292Z,22.57
2023-08-09T04:40:11.749Z,22.53
2023-08-09T04:42:42.394Z,22.55
2023-08-09T04:45:12.283Z,22.63
2023-08-09T04:47:39.734Z,22.68
2023-08-09T04:50:07.365Z,22.63
2023-08-09T04:52:35.936Z,22.77
2023-08-09T04:55:04.281Z,22.81
2023-08-09T04:57:33.999Z,22.83
2023-08-09T05:00:02.819Z,22.85
2023-08-09T05:02:29.507Z,22.81
2023-08-09T05:04:56.091Z,22.88
2023-08-09T05:07:22.738Z,22.83
2023-08-09T05:09:49.308Z,22.89
2023-08-09T05:12:16.081Z,22.86
2023-08-09T05:14:42.901Z,22.86
2023-08-09T05:17:09.571Z,22.92
2023-08-09T05:19:36.228Z,22.85
2023-08-09T05:22:02.820Z,22.82
2023-08-09T05:24:29.443Z,22.83
2023-08-09T05:26:56.044Z,22.90
2023-08-09T05:29:22.781Z,22.79
2023-08-09T05:31:49.428Z,22.73
2023-08-09T05:34:16.045Z,22.77
2023-08-09T05:36:44.699Z,22.71
2023-08-09T05:39:11.417Z,22.65
2023-08-09T05:41:38.000Z,22.65
2023-08-09T05:44:07.027Z,22.53
2023-08-09T05:46:34.326Z,22.60
2023-08-09T05:49:00.911Z,22.54
2023-08-09T05:51:27.656Z,22.45
2023-08-09T05:53:54.439Z,22.51
2023-08-09T05:56:21.083Z,22.48
2023-08-09T05:58:47.697Z,22.40
2023-08-09T06:01:15.161Z,22.40
2023-08-09T06:03:41.967Z,22.44
2023-08-09T06:06:09.323Z,22.38
2023-08-09T06:08:36.694Z,22.44
2023-08-09T06:11:04.154Z,22.39
2023-08-09T06:13:31.321Z,22.48
2023-08-09T06:15:58.901Z,22.48
2023-08-09T06:18:25.859Z,22.38
2023-08-09T06:20:52.659Z,22.35
2023-08-09T06:23:19.246Z,22.40
2023-08-09T06:25:47.978Z,22.45
2023-08-09T06:28:14.894Z,22.51
2023-08-09T06:30:41.484Z,22.54
2023-08-09T06:33:08.879Z,22.48
2023-08-09T06:35:35.615Z,22.55
2023-08-09T06:38:13.495Z,22.44
2023-08-09T06:40:42.473Z,22.49
2023-08-09T06:43:09.142Z,22.47
2023-08-09T06:45:36.491Z,22.46
2023-08-09T06:48:03.314Z,22.42
2023-08-09T06:50:29.911Z,22.41
2023-08-09T06:52:56.606Z,22.43
2023-08-09T06:55:23.268Z,22.37
2023-08-09T06:57:49.840Z,22.48
2023-08-09T07:00:17.727Z,22.36
2023-08-09T07:02:49.388Z,22.30
2023-08-09T07:05:19.828Z,22.24
2023-08-09T07:07:47.440Z,22.30
2023-08-09T07:10:16.218Z,22.27
2023-08-09T07:12:42.937Z,22.16
2023-08-09T07:15:10.068Z,22.24
2023-08-09T07:17:37.423Z,22.16
2023-08-09T07:20:08.315Z,22.16
2023-08-09T07:22:35.359Z,22.20
2023-08-09T07:25:02.791Z,22.17
2023-08-09T07:27:29.427Z,22.14
2023-08-09T07:29:56.012Z,22.23
2023-08-09T07:32:22.661Z,22.21
2023-08-09T07:34:50.890Z,22.09
2023-08-09T07:37:17.581Z,22.08
2023-08-09T07:39:44.800Z,22.12
2023-08-09T07:42:11.427Z,22.21
2023-08-09T07:44:38.101Z,22.23
2023-08-09T07:47:05.118Z,22.23
2023-08-09T07:49:31.841Z,22.28
2023-08-09T07:51:58.491Z,22.30
2023-08-09T07:54:25.206Z,22.25
2023-08-09T07:59:19.361Z,22.27
2023-08-09T08:01:46.259Z,22.34
2023-08-09T08:04:13.056Z,22.28
2023-08-09T08:06:39.655Z,22.14
2023-08-09T08:09:06.318Z,22.26
2023-08-09T08:11:32.932Z,22.19
2023-08-09T08:13:59.570Z,22.20
2023-08-09T08:16:26.209Z,22.24
2023-08-09T08:18:52.862Z,22.33
2023-08-09T08:21:19.690Z,22.19
2023-08-09T08:23:46.284Z,22.07
2023-08-09T08:26:12.857Z,22.25
2023-08-09T08:28:39.575Z,22.30
2023-08-09T08:31:06.507Z,22.17
2023-08-09T08:33:33.664Z,22.25
2023-08-09T08:36:14.382Z,22.32
2023-08-09T08:38:47.280Z,22.31
2023-08-09T08:41:13.862Z,22.40
2023-08-09T08:43:40.432Z,22.35
2023-08-09T08:46:07.074Z,22.35
2023-08-09T08:48:35.028Z,22.31
2023-08-09T08:51:07.045Z,22.34
2023-08-09T08:56:00.605Z,22.39
2023-08-09T08:58:27.198Z,22.38
2023-08-09T09:00:55.039Z,22.44
2023-08-09T09:03:21.748Z,22.50
2023-08-09T09:05:48.527Z,22.45
2023-08-09T09:08:15.431Z,22.50
2023-08-09T09:10:47.912Z,22.40
2023-08-09T09:13:27.634Z,22.46
2023-08-09T09:15:55.560Z,22.55
2023-08-09T09:18:23.276Z,22.59
2023-08-09T09:20:50.415Z,22.70
2023-08-09T09:23:31.112Z,22.76
2023-08-09T09:26:15.241Z,22.78
2023-08-09T09:28:48.701Z,22.70
2023-08-09T09:31:20.191Z,22.73
2023-08-09T09:33:50.734Z,22.74
2023-08-09T09:36:19.943Z,22.77
2023-08-09T09:38:51.866Z,22.80
2023-08-09T09:41:18.510Z,22.87
2023-08-09T09:43:47.571Z,22.84
2023-08-09T09:49:04.960Z,22.88
2023-08-09T09:51:31.864Z,22.92
2023-08-09T09:53:58.525Z,23.04
2023-08-09T09:56:26.796Z,23.02
2023-08-09T09:58:53.526Z,22.92
2023-08-09T10:01:24.816Z,22.94
2023-08-09T10:03:58.408Z,23.18
2023-08-09T10:06:29.829Z,23.28
2023-08-09T10:08:57.605Z,23.37
2023-08-09T10:11:26.537Z,23.40
2023-08-09T10:13:56.716Z,23.42
2023-08-09T10:16:26.503Z,23.32
2023-08-09T10:18:58.618Z,23.18
2023-08-09T10:21:26.175Z,23.18
2023-08-09T10:24:09.180Z,23.28
2023-08-09T10:26:40.956Z,23.29
2023-08-09T10:29:12.913Z,23.29
2023-08-09T10:31:49.454Z,23.08
2023-08-09T10:34:17.337Z,23.17
2023-08-09T10:36:49.780Z,23.25
2023-08-09T10:39:21.252Z,23.02
2023-08-09T10:42:12.636Z,23.03
2023-08-09T10:44:44.162Z,23.03
2023-08-09T10:47:14.083Z,22.94
2023-08-09T10:50:01.274Z,22.34
2023-08-09T10:52:40.810Z,22.00
2023-08-09T10:55:26.197Z,21.76
2023-08-09T10:57:54.657Z,21.87
2023-08-09T11:00:22.448Z,22.11
2023-08-09T11:02:53.628Z,22.28
2023-08-09T11:05:21.441Z,22.42
2023-08-09T11:07:50.477Z,22.60
2023-08-09T11:10:29.090Z,22.72
2023-08-09T11:12:55.844Z,22.95
2023-08-09T11:15:22.466Z,23.72
2023-08-09T11:17:52.066Z,24.02
2023-08-09T11:20:20.504Z,24.13
2023-08-09T11:22:57.387Z,24.16
2023-08-09T11:25:26.526Z,24.60
2023-08-09T11:27:57.423Z,24.86
2023-08-09T11:30:25.411Z,24.80
2023-08-09T11:33:00.882Z,24.94
2023-08-09T11:35:45.289Z,24.90
2023-08-09T11:38:14.884Z,24.98
2023-08-09T11:40:52.723Z,25.03
2023-08-09T11:43:21.345Z,24.96
2023-08-09T11:45:53.573Z,24.77
2023-08-09T11:48:31.536Z,24.91
2023-08-09T11:51:12.054Z,24.94
2023-08-09T11:53:40.478Z,25.09
2023-08-09T11:56:13.869Z,25.51
2023-08-09T11:58:44.929Z,25.62
2023-08-09T12:01:22.862Z,25.67
2023-08-09T12:03:51.659Z,25.60
2023-08-09T12:06:19.987Z,25.89
2023-08-09T12:08:46.556Z,26.02
2023-08-09T12:11:17.165Z,26.03
2023-08-09T12:13:43.804Z,26.11
2023-08-09T12:16:10.469Z,26.28
2023-08-09T12:18:40.163Z,25.94
2023-08-09T12:21:08.259Z,26.49
2023-08-09T12:23:36.768Z,26.19
2023-08-09T12:26:04.944Z,26.00
2023-08-09T12:28:32.150Z,26.54
2023-08-09T12:31:00.023Z,26.36
2023-08-09T12:33:28.422Z,26.58
2023-08-09T12:35:55.097Z,26.52
2023-08-09T12:38:21.757Z,26.86
2023-08-09T12:40:49.547Z,26.89
2023-08-09T12:43:16.369Z,26.96
2023-08-09T12:45:43.012Z,26.84
2023-08-09T12:48:09.721Z,26.98
2023-08-09T12:50:36.527Z,26.56
2023-08-09T12:53:08.549Z,26.89
2023-08-09T12:55:35.730Z,27.39
2023-08-09T12:58:02.320Z,27.38
2023-08-09T13:00:28.950Z,27.32
2023-08-09T13:02:55.613Z,26.79
2023-08-09T13:05:23.105Z,27.34
2023-08-09T13:07:50.576Z,27.56
2023-08-09T13:10:17.174Z,27.81
2023-08-09T13:12:43.812Z,27.69
2023-08-09T13:15:10.775Z,27.75
2023-08-09T13:17:37.487Z,27.97
2023-08-09T13:20:04.923Z,27.88
2023-08-09T13:22:31.874Z,27.68
2023-08-09T13:24:58.826Z,27.48
2023-08-09T13:27:25.420Z,27.74
2023-08-09T13:29:52.184Z,27.41
2023-08-09T13:32:18.765Z,27.51
2023-08-09T13:34:47.071Z,27.32
2023-08-09T13:37:13.653Z,27.29
2023-08-09T13:39:40.301Z,27.56
2023-08-09T13:42:07.219Z,27.19
2023-08-09T13:44:33.780Z,27.47
2023-08-09T13:47:00.721Z,27.31
2023-08-09T13:49:27.267Z,27.40
2023-08-09T13:51:53.876Z,27.52
2023-08-09T13:54:20.472Z,27.57
2023-08-09T13:56:47.153Z,27.38
2023-08-09T13:59:14.984Z,27.45
2023-08-09T14:01:41.755Z,27.43
2023-08-09T14:04:08.349Z,27.39
2023-08-09T14:06:34.939Z,27.52
2023-08-09T14:09:01.510Z,27.19
2023-08-09T14:11:28.082Z,26.87
2023-08-09T14:13:54.821Z,27.40
2023-08-09T14:16:21.489Z,27.28
2023-08-09T14:18:48.349Z,27.06
2023-08-09T14:21:14.978Z,27.28
2023-08-09T14:23:41.567Z,27.06
2023-08-09T14:26:08.186Z,26.99
2023-08-09T14:28:34.761Z,27.28
2023-08-09T14:31:01.426Z,27.42
2023-08-09T14:33:31.423Z,27.39
2023-08-09T14:35:58.561Z,27.19
2023-08-09T14:38:25.231Z,27.29
2023-08-09T14:40:51.909Z,27.25
2023-08-09T14:43:18.521Z,27.27
2023-08-09T14:45:48.194Z,27.32
2023-08-09T14:48:15.426Z,27.21
2023-08-09T14:50:44.044Z,27.01
2023-08-09T14:53:11.134Z,27.21
2023-08-09T14:55:37.905Z,27.14
2023-08-09T14:58:04.891Z,26.70
2023-08-09T15:00:33.862Z,27.09
2023-08-09T15:03:01.138Z,27.01
2023-08-09T15:05:27.867Z,26.99
2023-08-09T15:07:54.434Z,26.87
2023-08-09T15:10:21.064Z,26.86
2023-08-09T15:12:47.695Z,27.12
2023-08-09T15:15:14.964Z,27.01
2023-08-09T15:17:41.670Z,26.98
2023-08-09T15:20:12.286Z,26.68
2023-08-09T15:22:39.388Z,26.87
2023-08-09T15:25:17.180Z,26.88
2023-08-09T15:27:44.097Z,26.94
2023-08-09T15:30:11.486Z,26.82
2023-08-09T15:32:38.132Z,26.98
2023-08-09T15:35:05.457Z,26.90
2023-08-09T15:37:33.142Z,26.65
2023-08-09T15:39:59.692Z,26.63
2023-08-09T15:42:26.301Z,26.39
2023-08-09T15:44:52.924Z,26.56
2023-08-09T15:47:19.944Z,26.59
2023-08-09T15:49:48.233Z,26.47
2023-08-09T15:52:15.263Z,26.32
2023-08-09T15:54:41.864Z,26.34
2023-08-09T15:57:08.809Z,26.27
2023-08-09T15:59:35.362Z,26.23
2023-08-09T16:02:01.976Z,26.28
2023-08-09T16:04:29.197Z,26.26
2023-08-09T16:06:55.826Z,26.16
2023-08-09T16:09:24.026Z,26.20
2023-08-09T16:11:51.635Z,26.07
2023-08-09T16:14:18.452Z,26.01
2023-08-09T16:16:45.184Z,25.96
2023-08-09T16:19:12.094Z,25.91
2023-08-09T16:21:38.686Z,25.88
2023-08-09T16:24:05.763Z,25.93
2023-08-09T16:26:35.097Z,25.96
2023-08-09T16:29:04.610Z,26.02
2023-08-09T16:31:32.342Z,25.90
2023-08-09T16:33:58.981Z,25.86
2023-08-09T16:36:25.577Z,25.86
2023-08-09T16:38:52.516Z,25.79
2023-08-09T16:41:19.104Z,25.86
2023-08-09T16:43:46.033Z,25.88
2023-08-09T16:46:12.827Z,25.87
2023-08-09T16:48:39.432Z,25.87
2023-08-09T16:51:06.007Z,25.80
2023-08-09T16:53:32.675Z,25.82
2023-08-09T16:55:59.256Z,25.82
2023-08-09T16:58:25.883Z,25.74
2023-08-09T17:00:52.488Z,25.73
2023-08-09T17:03:20.255Z,25.82
2023-08-09T17:05:47.122Z,25.70
2023-08-09T17:10:42.358Z,25.69
2023-08-09T17:13:09.025Z,25.74
2023-08-09T17:15:36.908Z,25.73
2023-08-09T17:18:03.822Z,25.77
2023-08-09T17:20:30.904Z,25.77
2023-08-09T17:22:58.383Z,25.80
2023-08-09T17:25:24.961Z,25.71
2023-08-09T17:27:51.668Z,25.74
2023-08-09T17:30:18.558Z,25.71
2023-08-09T17:32:45.282Z,25.68
2023-08-09T17:35:12.428Z,25.63
2023-08-09T17:37:39.084Z,25.63
2023-08-09T17:40:06.335Z,25.67
2023-08-09T17:42:33.296Z,25.67
2023-08-09T17:45:00.778Z,25.58
2023-08-09T17:47:27.445Z,25.56
2023-08-09T17:49:54.109Z,25.50
2023-08-09T17:52:20.752Z,25.51
2023-08-09T17:54:47.311Z,25.48
2023-08-09T17:57:13.873Z,25.46
2023-08-09T17:59:40.794Z,25.46
2023-08-09T18:02:07.673Z,25.40
2023-08-09T18:04:34.435Z,25.40
2023-08-09T18:07:01.336Z,25.35
2023-08-09T18:09:28.048Z,25.34
2023-08-09T18:11:54.649Z,25.34
2023-08-09T18:14:21.241Z,25.34
2023-08-09T18:16:49.767Z,25.32
2023-08-09T18:19:17.792Z,25.18
2023-08-09T18:21:45.038Z,25.15
2023-08-09T18:24:11.707Z,25.12
2023-08-09T18:26:38.550Z,25.13
2023-08-09T18:29:05.160Z,25.10
2023-08-09T18:31:32.118Z,25.05
2023-08-09T18:33:58.823Z,25.13
2023-08-09T18:36:25.471Z,25.06
2023-08-09T18:38:52.503Z,25.10
2023-08-09T18:41:20.172Z,24.85
2023-08-09T18:43:47.022Z,24.82
2023-08-09T18:46:13.600Z,24.81
2023-08-09T18:48:40.315Z,24.80
2023-08-09T18:51:07.380Z,24.73
2023-08-09T18:53:33.934Z,24.70
2023-08-09T18:56:00.544Z,24.59
2023-08-09T18:58:27.177Z,24.56
2023-08-09T19:00:53.816Z,24.54
2023-08-09T19:03:20.617Z,24.59
2023-08-09T19:05:47.508Z,24.54
2023-08-09T19:08:14.409Z,24.50
2023-08-09T19:10:41.024Z,24.51
2023-08-09T19:13:07.605Z,24.56
2023-08-09T19:15:35.739Z,24.52
2023-08-09T19:18:04.709Z,24.50
2023-08-09T19:20:31.418Z,24.41
2023-08-09T19:23:00.118Z,24.41
2023-08-09T19:25:26.816Z,24.39
2023-08-09T19:27:54.128Z,24.36
2023-08-09T19:30:20.749Z,24.42
2023-08-09T19:32:47.380Z,24.34
2023-08-09T19:35:16.845Z,24.33
2023-08-09T19:37:43.899Z,24.29
2023-08-09T19:40:11.828Z,24.30
2023-08-09T19:42:38.812Z,24.31
2023-08-09T19:45:05.905Z,24.27
2023-08-09T19:47:32.915Z,24.27
2023-08-09T19:49:59.620Z,24.29
2023-08-09T19:52:26.367Z,24.28
2023-08-09T19:54:53.063Z,24.26
2023-08-09T19:57:19.722Z,24.26
2023-08-09T19:59:46.972Z,24.22
2023-08-09T20:02:13.565Z,24.21
2023-08-09T20:04:41.543Z,24.21
2023-08-09T20:07:08.376Z,24.23
2023-08-09T20:09:35.947Z,24.18
2023-08-09T20:12:03.278Z,24.15
2023-08-09T20:14:29.881Z,24.06
2023-08-09T20:16:56.994Z,24.15
2023-08-09T20:19:23.794Z,24.25
2023-08-09T20:21:50.419Z,24.23
2023-08-09T20:24:42.959Z,24.16
2023-08-09T20:27:10.784Z,24.13
2023-08-09T20:29:37.369Z,24.16
2023-08-09T20:32:04.350Z,24.16
2023-08-09T20:34:31.237Z,24.15
2023-08-09T20:36:58.633Z,24.11
2023-08-09T20:39:26.678Z,24.12
2023-08-09T20:41:53.502Z,24.11
2023-08-09T20:44:20.399Z,24.15
2023-08-09T20:46:47.104Z,24.12
2023-08-09T20:49:13.802Z,24.13
2023-08-09T20:51:40.400Z,24.14
2023-08-09T20:54:07.329Z,24.12
2023-08-09T20:56:34.483Z,24.11
2023-08-09T20:59:04.187Z,24.09
2023-08-09T21:01:32.026Z,24.10
2023-08-09T21:04:00.273Z,24.06
2023-08-09T21:06:27.325Z,24.04
2023-08-09T21:08:54.129Z,24.04
2023-08-09T21:11:21.373Z,23.99
2023-08-09T21:13:48.050Z,23.95
2023-08-09T21:16:15.484Z,23.84
2023-08-09T21:18:43.955Z,23.83
2023-08-09T21:21:13.930Z,23.73
2023-08-09T21:26:11.028Z,23.53
2023-08-09T21:28:37.655Z,23.44
2023-08-09T21:31:04.301Z,23.43
2023-08-09T21:33:30.928Z,23.36
2023-08-09T21:35:57.548Z,23.45
2023-08-09T21:38:24.149Z,23.38
2023-08-09T21:41:00.713Z,23.38
2023-08-09T21:43:28.405Z,23.29
2023-08-09T21:45:55.081Z,23.30
2023-08-09T21:48:22.345Z,23.32
2023-08-09T21:50:52.241Z,23.33
2023-08-09T21:53:22.280Z,23.33
2023-08-09T21:55:48.885Z,23.13
2023-08-09T21:58:15.965Z,23.07
2023-08-09T22:00:43.093Z,22.98
2023-08-09T22:03:09.929Z,23.04
2023-08-09T22:05:36.830Z,23.05
2023-08-09T22:08:03.802Z,22.96
2023-08-09T22:10:31.342Z,22.99
2023-08-09T22:12:58.118Z,22.91
2023-08-09T22:15:25.284Z,22.88
2023-08-09T22:17:52.049Z,22.83
2023-08-09T22:20:20.021Z,22.90
2023-08-09T22:22:47.223Z,22.84
2023-08-09T22:25:13.833Z,22.72
2023-08-09T22:27:40.636Z,22.63
2023-08-09T22:30:07.927Z,22.55
2023-08-09T22:32:34.553Z,22.58
2023-08-09T22:35:01.110Z,22.68
2023-08-09T22:37:27.700Z,22.66
2023-08-09T22:39:54.490Z,22.58
2023-08-09T22:42:21.087Z,22.59
2023-08-09T22:44:47.813Z,22.53
2023-08-09T22:47:14.508Z,22.59
2023-08-09T22:49:41.190Z,22.69
2023-08-09T22:52:07.834Z,22.53
2023-08-09T22:54:34.427Z,22.64
2023-08-09T22:57:01.091Z,22.67
2023-08-09T22:59:27.780Z,22.61
2023-08-09T23:01:56.521Z,22.51
2023-08-09T23:04:23.104Z,22.58
2023-08-09T23:06:49.675Z,22.62
2023-08-09T23:09:16.310Z,22.51
2023-08-09T23:11:42.957Z,22.66
2023-08-09T23:14:09.573Z,22.65
2023-08-09T23:16:36.207Z,22.61
2023-08-09T23:19:02.839Z,22.60
2023-08-09T23:21:29.772Z,22.72
2023-08-09T23:23:56.372Z,22.75
2023-08-09T23:26:22.957Z,22.70
2023-08-09T23:28:49.604Z,22.81
2023-08-09T23:31:16.297Z,22.86
2023-08-09T23:33:43.007Z,22.87
2023-08-09T23:36:09.671Z,22.84
2023-08-09T23:38:36.305Z,22.88
2023-08-09T23:41:08.121Z,22.76
2023-08-09T23:43:35.340Z,22.71
2023-08-09T23:46:02.363Z,22.69
2023-08-09T23:48:29.001Z,22.69
2023-08-09T23:50:55.668Z,22.74
2023-08-09T23:53:22.760Z,22.70
2023-08-09T23:55:49.351Z,22.71
2023-08-09T23:58:15.970Z,22.70
